createdAt,value
2022-10-01T00:02:08.481Z,4.03
2022-10-01T00:04:37.663Z,4.78
2022-10-01T00:07:10.827Z,4.43
2022-10-01T00:09:39.064Z,4.38
2022-10-01T00:12:25.468Z,4.57
2022-10-01T00:14:53.584Z,4.55
2022-10-01T00:17:21.702Z,4.15
2022-10-01T00:19:49.969Z,4.65
2022-10-01T00:22:19.109Z,4.13
2022-10-01T00:24:47.915Z,4.95
2022-10-01T00:27:16.117Z,5.15
2022-10-01T00:29:45.372Z,4.90
2022-10-01T00:32:13.472Z,4.68
2022-10-01T00:34:41.667Z,4.75
2022-10-01T00:37:10.709Z,6.07
2022-10-01T00:39:39.174Z,4.78
2022-10-01T00:42:33.694Z,5.35
2022-10-01T00:45:02.338Z,4.60
2022-10-01T00:47:31.817Z,4.80
2022-10-01T00:50:16.386Z,5.32
2022-10-01T00:52:51.182Z,5.05
2022-10-01T00:55:43.587Z,4.90
2022-10-01T00:58:14.316Z,5.22
2022-10-01T01:00:43.671Z,4.40
2022-10-01T01:03:12.344Z,5.03
2022-10-01T01:05:40.576Z,4.30
2022-10-01T01:08:10.090Z,4.13
2022-10-01T01:11:03.553Z,4.15
2022-10-01T01:14:01.110Z,3.65
2022-10-01T01:16:56.149Z,3.45
2022-10-01T01:19:39.965Z,3.80
2022-10-01T01:22:10.036Z,3.67
2022-10-01T01:25:16.828Z,3.58
2022-10-01T01:28:31.720Z,3.50
2022-10-01T01:31:05.727Z,3.60
2022-10-01T01:33:37.300Z,3.90
2022-10-01T01:36:11.998Z,3.90
2022-10-01T01:38:46.180Z,3.55
2022-10-01T01:41:16.194Z,3.45
2022-10-01T01:43:48.549Z,3.58
2022-10-01T01:46:18.131Z,3.20
2022-10-01T01:48:49.530Z,3.47
2022-10-01T01:51:41.401Z,3.53
2022-10-01T01:54:09.998Z,3.65
2022-10-01T01:56:38.819Z,3.60
2022-10-01T01:59:08.552Z,4.05
2022-10-01T02:01:41.053Z,3.22
2022-10-01T02:04:14.938Z,3.43
2022-10-01T02:07:44.247Z,3.53
2022-10-01T02:10:27.142Z,3.60
2022-10-01T02:13:14.037Z,3.65
2022-10-01T02:16:01.478Z,3.70
2022-10-01T02:18:53.751Z,3.75
2022-10-01T02:21:40.346Z,3.83
2022-10-01T02:24:22.773Z,4.18
2022-10-01T02:26:53.499Z,4.22
2022-10-01T02:29:23.876Z,3.95
2022-10-01T02:31:55.778Z,3.70
2022-10-01T02:34:28.978Z,3.88
2022-10-01T02:37:01.181Z,3.90
2022-10-01T02:39:33.052Z,3.38
2022-10-01T02:42:03.671Z,3.92
2022-10-01T02:44:38.226Z,3.95
2022-10-01T02:47:45.165Z,3.22
2022-10-01T02:50:14.180Z,3.53
2022-10-01T02:52:52.883Z,3.30
2022-10-01T02:55:35.667Z,3.50
2022-10-01T02:58:04.158Z,3.60
2022-10-01T03:00:32.445Z,3.88
2022-10-01T03:03:00.696Z,3.90
2022-10-01T03:05:28.839Z,4.72
2022-10-01T03:07:57.015Z,4.32
2022-10-01T03:10:25.218Z,4.43
2022-10-01T03:12:53.425Z,3.90
2022-10-01T03:15:21.518Z,3.63
2022-10-01T03:17:53.914Z,3.28
2022-10-01T03:20:22.803Z,3.47
2022-10-01T03:22:51.175Z,3.63
2022-10-01T03:25:19.319Z,3.40
2022-10-01T03:27:47.586Z,3.85
2022-10-01T03:30:15.862Z,4.07
2022-10-01T03:32:43.928Z,4.00
2022-10-01T03:35:12.384Z,4.07
2022-10-01T03:37:40.520Z,4.05
2022-10-01T03:40:09.056Z,4.28
2022-10-01T03:42:37.227Z,5.18
2022-10-01T03:45:05.546Z,5.00
2022-10-01T03:47:33.676Z,5.55
2022-10-01T03:50:01.968Z,6.13
2022-10-01T03:52:30.175Z,9.45
2022-10-01T03:54:58.365Z,5.60
2022-10-01T03:57:26.451Z,5.50
2022-10-01T03:59:54.615Z,4.50
2022-10-01T04:02:22.823Z,5.80
2022-10-01T04:04:51.145Z,5.65
2022-10-01T04:07:19.236Z,6.18
2022-10-01T04:09:47.375Z,5.40
2022-10-01T04:12:15.537Z,5.93
2022-10-01T04:14:43.597Z,4.75
2022-10-01T04:17:11.698Z,5.70
2022-10-01T04:19:39.874Z,4.97
2022-10-01T04:22:08.026Z,4.75
2022-10-01T04:24:36.113Z,4.80
2022-10-01T04:27:04.316Z,5.28
2022-10-01T04:29:34.751Z,5.43
2022-10-01T04:32:07.208Z,4.28
2022-10-01T04:34:53.450Z,3.63
2022-10-01T04:37:23.114Z,4.20
2022-10-01T04:39:51.271Z,3.92
2022-10-01T04:42:20.011Z,4.18
2022-10-01T04:44:48.625Z,4.65
2022-10-01T04:47:16.760Z,5.28
2022-10-01T04:49:44.881Z,4.55
2022-10-01T04:52:13.040Z,4.53
2022-10-01T04:54:41.242Z,5.38
2022-10-01T04:57:09.361Z,4.85
2022-10-01T04:59:37.624Z,4.93
2022-10-01T05:02:05.740Z,5.30
2022-10-01T05:04:33.940Z,4.53
2022-10-01T05:07:02.032Z,4.82
2022-10-01T05:09:30.121Z,4.13
2022-10-01T05:11:58.250Z,3.22
2022-10-01T05:14:26.859Z,3.40
2022-10-01T05:16:55.047Z,3.85
2022-10-01T05:19:26.334Z,3.38
2022-10-01T05:21:56.534Z,3.40
2022-10-01T05:24:24.877Z,3.15
2022-10-01T05:26:56.422Z,3.20
2022-10-01T05:29:24.551Z,3.30
2022-10-01T05:31:52.811Z,3.60
2022-10-01T05:34:20.923Z,3.17
2022-10-01T05:36:49.075Z,3.70
2022-10-01T05:39:17.146Z,3.10
2022-10-01T05:41:45.255Z,3.55
2022-10-01T05:44:13.341Z,3.08
2022-10-01T05:46:42.003Z,3.70
2022-10-01T05:49:10.671Z,3.78
2022-10-01T05:51:39.328Z,3.78
2022-10-01T05:54:07.991Z,4.68
2022-10-01T05:56:36.867Z,5.70
2022-10-01T05:59:05.773Z,5.90
2022-10-01T06:01:34.087Z,6.38
2022-10-01T06:04:02.632Z,5.38
2022-10-01T06:06:31.124Z,4.10
2022-10-01T06:09:00.132Z,4.93
2022-10-01T06:11:28.257Z,4.57
2022-10-01T06:13:56.550Z,4.20
2022-10-01T06:16:24.829Z,4.20
2022-10-01T06:18:57.439Z,6.30
2022-10-01T06:21:26.980Z,9.02
2022-10-01T06:23:55.353Z,8.60
2022-10-01T06:26:24.234Z,8.15
2022-10-01T06:28:52.778Z,7.80
2022-10-01T06:31:21.594Z,6.43
2022-10-01T06:33:49.811Z,8.73
2022-10-01T06:36:18.042Z,14.18
2022-10-01T06:38:49.339Z,14.02
2022-10-01T06:41:17.444Z,13.45
2022-10-01T06:43:45.538Z,12.43
2022-10-01T06:46:13.837Z,8.48
2022-10-01T06:48:41.958Z,7.40
2022-10-01T06:51:10.049Z,6.60
2022-10-01T06:53:38.178Z,6.75
2022-10-01T06:56:07.904Z,6.65
2022-10-01T06:58:37.390Z,6.45
2022-10-01T07:01:05.622Z,6.68
2022-10-01T07:03:34.214Z,7.35
2022-10-01T07:06:04.515Z,8.55
2022-10-01T07:08:33.398Z,7.97
2022-10-01T07:11:05.162Z,8.77
2022-10-01T07:13:33.387Z,7.50
2022-10-01T07:16:04.484Z,8.18
2022-10-01T07:18:32.857Z,7.30
2022-10-01T07:21:01.624Z,8.32
2022-10-01T07:23:29.791Z,8.98
2022-10-01T07:25:57.911Z,7.30
2022-10-01T07:28:26.972Z,8.45
2022-10-01T07:31:03.871Z,7.78
2022-10-01T07:33:32.048Z,7.90
2022-10-01T07:36:05.979Z,8.07
2022-10-01T07:38:34.762Z,8.20
2022-10-01T07:41:03.539Z,8.70
2022-10-01T07:43:33.061Z,10.52
2022-10-01T07:46:02.078Z,11.15
2022-10-01T07:48:31.062Z,11.60
2022-10-01T07:50:59.248Z,12.10
2022-10-01T07:53:27.654Z,11.82
2022-10-01T07:55:56.156Z,12.52
2022-10-01T07:58:24.475Z,12.38
2022-10-01T08:00:58.185Z,11.70
2022-10-01T08:03:26.392Z,12.00
2022-10-01T08:05:54.702Z,12.23
2022-10-01T08:08:22.909Z,12.50
2022-10-01T08:10:51.052Z,11.65
2022-10-01T08:13:20.459Z,10.30
2022-10-01T08:15:54.678Z,10.55
2022-10-01T08:18:24.122Z,9.95
2022-10-01T08:20:52.615Z,10.63
2022-10-01T08:23:21.630Z,10.35
2022-10-01T08:25:49.820Z,8.70
2022-10-01T08:28:18.339Z,9.82
2022-10-01T08:30:46.595Z,10.20
2022-10-01T08:33:15.319Z,9.85
2022-10-01T08:35:43.924Z,9.45
2022-10-01T08:38:13.070Z,9.55
2022-10-01T08:40:51.430Z,10.13
2022-10-01T08:43:38.562Z,10.35
2022-10-01T08:46:19.710Z,10.38
2022-10-01T08:48:48.137Z,9.98
2022-10-01T08:51:39.739Z,10.30
2022-10-01T08:54:19.896Z,11.10
2022-10-01T08:56:48.584Z,10.20
2022-10-01T08:59:28.528Z,9.40
2022-10-01T09:01:59.094Z,10.35
2022-10-01T09:04:28.299Z,12.23
2022-10-01T09:07:14.977Z,10.77
2022-10-01T09:09:56.568Z,10.77
2022-10-01T09:12:44.808Z,10.57
2022-10-01T09:15:19.291Z,12.63
2022-10-01T09:18:34.345Z,14.95
2022-10-01T09:21:06.597Z,15.15
2022-10-01T09:24:04.703Z,15.85
2022-10-01T09:26:34.903Z,17.17
2022-10-01T09:29:09.568Z,17.27
2022-10-01T09:31:45.288Z,16.23
2022-10-01T09:34:17.083Z,15.73
2022-10-01T09:37:08.342Z,15.30
2022-10-01T09:39:51.278Z,14.85
2022-10-01T09:42:27.963Z,15.20
2022-10-01T09:44:57.668Z,15.00
2022-10-01T09:47:26.374Z,16.27
2022-10-01T09:49:54.773Z,15.48
2022-10-01T09:52:34.531Z,15.45
2022-10-01T09:55:37.808Z,16.05
2022-10-01T09:58:17.156Z,15.80
2022-10-01T10:00:45.651Z,16.00
2022-10-01T10:03:28.892Z,17.02
2022-10-01T10:05:59.947Z,18.95
2022-10-01T10:08:30.394Z,18.80
2022-10-01T10:11:02.062Z,18.33
2022-10-01T10:13:35.305Z,20.30
2022-10-01T10:18:40.160Z,20.30
2022-10-01T10:21:21.674Z,22.45
2022-10-01T10:23:59.205Z,21.88
2022-10-01T10:26:38.378Z,21.98
2022-10-01T10:29:24.313Z,20.98
2022-10-01T10:31:54.140Z,18.20
2022-10-01T10:34:33.814Z,18.25
2022-10-01T10:37:06.870Z,17.50
2022-10-01T10:39:39.546Z,18.05
2022-10-01T10:42:08.556Z,18.33
2022-10-01T10:44:42.073Z,17.27
2022-10-01T10:47:19.243Z,17.75
2022-10-01T10:50:02.978Z,16.48
2022-10-01T10:52:37.062Z,16.13
2022-10-01T10:55:32.850Z,15.93
2022-10-01T10:58:15.259Z,15.48
2022-10-01T11:00:56.509Z,16.98
2022-10-01T11:03:29.705Z,16.98
2022-10-01T11:06:11.368Z,15.20
2022-10-01T11:08:41.342Z,17.33
2022-10-01T11:11:35.690Z,15.48
2022-10-01T11:14:03.731Z,16.25
2022-10-01T11:16:49.872Z,14.60
2022-10-01T11:19:36.689Z,14.68
2022-10-01T11:22:27.440Z,13.80
2022-10-01T11:25:01.595Z,14.80
2022-10-01T11:27:57.659Z,16.08
2022-10-01T11:30:34.638Z,14.07
2022-10-01T11:33:30.590Z,14.25
2022-10-01T11:36:16.364Z,16.17
2022-10-01T11:39:05.514Z,16.23
2022-10-01T11:41:54.848Z,13.55
2022-10-01T11:44:40.925Z,14.60
2022-10-01T11:47:17.071Z,13.35
2022-10-01T11:49:48.749Z,13.57
2022-10-01T11:52:43.835Z,12.38
2022-10-01T11:55:39.937Z,12.25
2022-10-01T11:58:45.450Z,14.27
2022-10-01T12:01:23.506Z,12.68
2022-10-01T12:03:54.401Z,10.23
2022-10-01T12:06:41.188Z,8.52
2022-10-01T12:09:29.964Z,9.55
2022-10-01T12:12:12.066Z,12.38
2022-10-01T12:15:19.303Z,11.48
2022-10-01T12:17:55.351Z,10.32
2022-10-01T12:20:31.523Z,11.85
2022-10-01T12:23:02.786Z,12.35
2022-10-01T12:25:42.701Z,12.10
2022-10-01T12:28:17.486Z,10.85
2022-10-01T12:31:15.369Z,10.43
2022-10-01T12:33:59.218Z,8.60
2022-10-01T12:36:36.877Z,9.52
2022-10-01T12:39:18.323Z,10.32
2022-10-01T12:42:07.343Z,9.73
2022-10-01T12:44:57.327Z,8.57
2022-10-01T12:47:55.391Z,8.15
2022-10-01T12:50:36.879Z,8.63
2022-10-01T12:53:16.372Z,9.43
2022-10-01T12:55:56.931Z,7.72
2022-10-01T12:58:51.279Z,7.75
2022-10-01T13:01:47.612Z,9.52
2022-10-01T13:04:36.829Z,8.88
2022-10-01T13:07:23.598Z,9.07
2022-10-01T13:10:11.695Z,9.45
2022-10-01T13:13:12.023Z,10.48
2022-10-01T13:15:44.648Z,8.50
2022-10-01T13:18:38.666Z,10.03
2022-10-01T13:21:16.572Z,9.68
2022-10-01T13:23:48.861Z,7.00
2022-10-01T13:27:03.483Z,6.13
2022-10-01T13:29:48.029Z,4.85
2022-10-01T13:32:53.417Z,4.25
2022-10-01T13:35:27.406Z,5.10
2022-10-01T13:37:57.876Z,5.55
2022-10-01T13:40:30.491Z,6.10
2022-10-01T13:43:04.018Z,6.35
2022-10-01T13:45:43.118Z,6.20
2022-10-01T13:48:11.275Z,5.88
2022-10-01T13:50:41.843Z,5.88
2022-10-01T13:53:20.378Z,5.25
2022-10-01T13:55:49.092Z,4.65
2022-10-01T13:58:23.156Z,4.10
2022-10-01T14:00:54.080Z,3.88
2022-10-01T14:03:49.985Z,3.50
2022-10-01T14:06:27.798Z,4.22
2022-10-01T14:09:14.689Z,4.60
2022-10-01T14:12:08.585Z,4.20
2022-10-01T14:14:59.486Z,4.00
2022-10-01T14:17:32.823Z,3.70
2022-10-01T14:23:04.117Z,3.75
2022-10-01T14:25:43.944Z,3.53
2022-10-01T14:28:37.580Z,4.38
2022-10-01T14:31:15.798Z,3.50
2022-10-01T14:34:00.512Z,4.18
2022-10-01T14:36:35.072Z,4.40
2022-10-01T14:39:24.463Z,3.83
2022-10-01T14:41:55.114Z,4.30
2022-10-01T14:44:40.757Z,4.22
2022-10-01T14:47:23.648Z,4.53
2022-10-01T14:49:53.875Z,3.40
2022-10-01T14:52:31.613Z,2.75
2022-10-01T14:55:01.762Z,2.42
2022-10-01T14:57:42.690Z,2.78
2022-10-01T15:00:19.735Z,3.05
2022-10-01T15:02:51.847Z,2.70
2022-10-01T15:05:27.789Z,2.67
2022-10-01T15:07:56.278Z,2.67
2022-10-01T15:10:27.972Z,2.45
2022-10-01T15:12:56.646Z,2.05
2022-10-01T15:15:43.649Z,2.00
2022-10-01T15:18:18.567Z,2.00
2022-10-01T15:21:05.572Z,1.75
2022-10-01T15:23:39.728Z,1.55
2022-10-01T15:26:12.563Z,1.90
2022-10-01T15:28:40.663Z,2.28
2022-10-01T15:31:08.953Z,2.45
2022-10-01T15:33:40.535Z,2.10
2022-10-01T15:36:15.438Z,1.65
2022-10-01T15:38:47.809Z,1.70
2022-10-01T15:41:32.760Z,1.80
2022-10-01T15:45:01.192Z,2.33
2022-10-01T15:47:34.653Z,1.88
2022-10-01T15:50:11.661Z,1.52
2022-10-01T15:52:51.770Z,1.73
2022-10-01T15:55:31.236Z,1.40
2022-10-01T15:58:08.820Z,1.45
2022-10-01T16:00:58.419Z,1.67
2022-10-01T16:03:38.821Z,2.03
2022-10-01T16:06:17.518Z,1.70
2022-10-01T16:09:14.239Z,1.65
2022-10-01T16:12:00.216Z,2.10
2022-10-01T16:14:43.888Z,1.80
2022-10-01T16:19:52.155Z,1.98
2022-10-01T16:22:21.592Z,1.90
2022-10-01T16:25:07.252Z,1.83
2022-10-01T16:27:45.995Z,1.73
2022-10-01T16:30:21.476Z,1.80
2022-10-01T16:32:50.683Z,2.22
2022-10-01T16:35:24.488Z,1.90
2022-10-01T16:37:55.160Z,2.60
2022-10-01T16:40:26.073Z,2.60
2022-10-01T16:42:54.608Z,2.80
2022-10-01T16:45:29.627Z,2.60
2022-10-01T16:47:57.941Z,2.25
2022-10-01T16:50:26.474Z,3.00
2022-10-01T16:52:56.176Z,3.20
2022-10-01T16:55:27.410Z,3.67
2022-10-01T16:57:55.632Z,3.22
2022-10-01T17:00:26.505Z,3.33
2022-10-01T17:02:55.889Z,3.75
2022-10-01T17:05:27.161Z,3.15
2022-10-01T17:08:03.580Z,3.20
2022-10-01T17:10:36.393Z,3.65
2022-10-01T17:13:04.757Z,4.10
2022-10-01T17:15:33.289Z,3.83
2022-10-01T17:18:01.987Z,3.83
2022-10-01T17:20:30.694Z,3.50
2022-10-01T17:22:59.199Z,4.20
2022-10-01T17:25:34.459Z,4.28
2022-10-01T17:28:04.877Z,3.90
2022-10-01T17:30:33.191Z,4.57
2022-10-01T17:33:02.065Z,3.80
2022-10-01T17:35:30.559Z,3.85
2022-10-01T17:37:59.107Z,4.00
2022-10-01T17:40:27.371Z,4.10
2022-10-01T17:42:55.490Z,3.58
2022-10-01T17:45:23.620Z,4.20
2022-10-01T17:47:51.811Z,4.20
2022-10-01T17:50:19.966Z,3.83
2022-10-01T17:52:48.524Z,4.10
2022-10-01T17:55:17.427Z,4.63
2022-10-01T17:57:45.562Z,4.45
2022-10-01T18:00:13.957Z,4.63
2022-10-01T18:02:43.329Z,5.20
2022-10-01T18:05:14.694Z,6.57
2022-10-01T18:07:43.090Z,5.88
2022-10-01T18:10:13.290Z,4.93
2022-10-01T18:12:41.507Z,5.47
2022-10-01T18:15:10.462Z,5.82
2022-10-01T18:17:43.395Z,5.88
2022-10-01T18:20:14.804Z,5.35
2022-10-01T18:22:42.969Z,5.00
2022-10-01T18:25:12.816Z,5.47
2022-10-01T18:27:41.017Z,5.63
2022-10-01T18:30:10.211Z,5.15
2022-10-01T18:32:45.021Z,5.20
2022-10-01T18:35:33.751Z,5.10
2022-10-01T18:38:25.470Z,5.43
2022-10-01T18:41:02.851Z,5.18
2022-10-01T18:43:34.715Z,4.70
2022-10-01T18:46:35.947Z,5.22
2022-10-01T18:49:32.581Z,5.47
2022-10-01T18:52:37.987Z,5.72
2022-10-01T18:55:18.929Z,5.20
2022-10-01T18:58:00.234Z,5.78
2022-10-01T19:01:06.642Z,5.80
2022-10-01T19:03:34.816Z,6.53
2022-10-01T19:06:09.142Z,5.75
2022-10-01T19:08:46.771Z,6.55
2022-10-01T19:11:33.401Z,6.05
2022-10-01T19:14:30.040Z,7.38
2022-10-01T19:17:25.719Z,5.80
2022-10-01T19:20:11.111Z,5.47
2022-10-01T19:22:45.092Z,6.50
2022-10-01T19:25:23.820Z,6.55
2022-10-01T19:28:33.366Z,6.32
2022-10-01T19:31:33.682Z,6.82
2022-10-01T19:34:25.384Z,6.32
2022-10-01T19:37:08.097Z,6.75
2022-10-01T19:39:39.250Z,6.47
2022-10-01T19:42:26.301Z,6.80
2022-10-01T19:45:13.378Z,6.25
2022-10-01T19:47:58.502Z,6.72
2022-10-01T19:50:33.820Z,6.90
2022-10-01T19:53:03.892Z,6.70
2022-10-01T19:55:38.713Z,6.55
2022-10-01T19:58:18.160Z,6.75
2022-10-01T20:00:52.799Z,6.55
2022-10-01T20:03:35.253Z,6.97
2022-10-01T20:06:09.522Z,6.82
2022-10-01T20:08:58.695Z,6.72
2022-10-01T20:11:31.857Z,7.15
2022-10-01T20:14:42.061Z,7.60
2022-10-01T20:17:37.721Z,6.22
2022-10-01T20:20:41.279Z,6.22
2022-10-01T20:23:36.879Z,7.15
2022-10-01T20:26:26.156Z,6.50
2022-10-01T20:29:06.871Z,6.15
2022-10-01T20:32:03.184Z,6.00
2022-10-01T20:35:08.667Z,5.55
2022-10-01T20:38:00.988Z,5.47
2022-10-01T20:40:40.075Z,5.07
2022-10-01T20:43:20.435Z,5.13
2022-10-01T20:45:52.564Z,5.32
2022-10-01T20:48:29.669Z,4.97
2022-10-01T20:51:09.623Z,6.00
2022-10-01T20:53:53.138Z,5.80
2022-10-01T20:56:33.299Z,5.53
2022-10-01T20:59:38.701Z,5.90
2022-10-01T21:02:25.299Z,5.88
2022-10-01T21:05:07.628Z,5.68
2022-10-01T21:07:40.150Z,5.40
2022-10-01T21:10:27.003Z,5.50
2022-10-01T21:13:26.879Z,6.38
2022-10-01T21:16:16.924Z,6.28
2022-10-01T21:19:14.080Z,5.40
2022-10-01T21:22:04.933Z,5.65
2022-10-01T21:25:03.529Z,5.35
2022-10-01T21:28:05.221Z,5.07
2022-10-01T21:31:01.883Z,4.55
2022-10-01T21:33:38.600Z,5.07
2022-10-01T21:36:19.354Z,4.28
2022-10-01T21:38:52.247Z,3.92
2022-10-01T21:41:23.644Z,4.20
2022-10-01T21:44:19.466Z,4.40
2022-10-01T21:46:58.828Z,4.13
2022-10-01T21:49:38.293Z,4.22
2022-10-01T21:52:30.635Z,3.70
2022-10-01T21:55:20.024Z,3.83
2022-10-01T21:58:02.932Z,3.75
2022-10-01T22:00:32.682Z,4.07
2022-10-01T22:03:19.763Z,4.03
2022-10-01T22:06:21.019Z,4.35
2022-10-01T22:09:07.447Z,4.90
2022-10-01T22:11:39.700Z,3.78
2022-10-01T22:14:17.621Z,4.47
2022-10-01T22:16:57.982Z,3.80
2022-10-01T22:19:37.227Z,4.40
2022-10-01T22:22:31.122Z,3.78
2022-10-01T22:25:00.868Z,3.80
2022-10-01T22:27:38.571Z,5.72
2022-10-01T22:30:15.969Z,4.13
2022-10-01T22:32:53.309Z,3.88
2022-10-01T22:35:44.968Z,3.88
2022-10-01T22:38:19.825Z,3.83
2022-10-01T22:41:10.842Z,3.65
2022-10-01T22:43:41.552Z,3.85
2022-10-01T22:46:34.557Z,3.35
2022-10-01T22:49:38.582Z,3.60
2022-10-01T22:52:24.246Z,3.70
2022-10-01T22:54:55.079Z,3.95
2022-10-01T22:57:54.455Z,3.97
2022-10-01T23:00:23.014Z,4.07
2022-10-01T23:03:12.503Z,4.03
2022-10-01T23:06:11.051Z,3.95
2022-10-01T23:08:41.920Z,3.30
2022-10-01T23:11:28.352Z,4.13
2022-10-01T23:14:18.453Z,3.67
2022-10-01T23:17:16.914Z,3.33
2022-10-01T23:20:16.417Z,3.35
2022-10-01T23:23:19.822Z,3.25
2022-10-01T23:26:00.138Z,3.53
2022-10-01T23:28:51.220Z,3.38
2022-10-01T23:31:53.609Z,3.28
2022-10-01T23:34:21.795Z,2.92
2022-10-01T23:37:21.635Z,3.33
2022-10-01T23:40:14.390Z,2.70
2022-10-01T23:42:46.258Z,2.90
2022-10-01T23:45:40.092Z,2.60
2022-10-01T23:50:50.314Z,2.95
2022-10-01T23:53:25.194Z,3.22
2022-10-01T23:56:30.506Z,2.60
2022-10-01T23:59:24.220Z,2.83
